sensor_id;sensor_type;location;lat;lon;timestamp;temperature;humidity
52305;DHT22;38248;52.722;6.734;2022-09-09T00:01:34;13.70;99.90
52305;DHT22;38248;52.722;6.734;2022-09-09T00:04:24;13.70;99.90
52305;DHT22;38248;52.722;6.734;2022-09-09T00:07:07;13.60;99.90
52305;DHT22;38248;52.722;6.734;2022-09-09T00:09:41;13.60;99.90
52305;DHT22;38248;52.722;6.734;2022-09-09T00:17:12;13.50;99.90
52305;DHT22;38248;52.722;6.734;2022-09-09T00:22:48;13.50;99.90
52305;DHT22;38248;52.722;6.734;2022-09-09T00:25:29;13.40;99.90
52305;DHT22;38248;52.722;6.734;2022-09-09T00:27:56;13.40;99.90
52305;DHT22;38248;52.722;6.734;2022-09-09T00:30:27;13.50;99.90
52305;DHT22;38248;52.722;6.734;2022-09-09T00:33:00;13.40;99.90
52305;DHT22;38248;52.722;6.734;2022-09-09T00:36:14;13.30;99.90
52305;DHT22;38248;52.722;6.734;2022-09-09T00:38:50;13.30;99.90
52305;DHT22;38248;52.722;6.734;2022-09-09T00:41:32;13.30;99.90
52305;DHT22;38248;52.722;6.734;2022-09-09T00:49:50;13.40;99.90
52305;DHT22;38248;52.722;6.734;2022-09-09T00:52:47;13.30;99.90
52305;DHT22;38248;52.722;6.734;2022-09-09T00:55:38;13.50;99.90
52305;DHT22;38248;52.722;6.734;2022-09-09T00:58:07;13.50;99.90
52305;DHT22;38248;52.722;6.734;2022-09-09T01:00:51;13.50;99.90
52305;DHT22;38248;52.722;6.734;2022-09-09T01:06:13;13.70;99.90
52305;DHT22;38248;52.722;6.734;2022-09-09T01:09:02;13.70;99.90
52305;DHT22;38248;52.722;6.734;2022-09-09T01:11:40;13.80;99.90
52305;DHT22;38248;52.722;6.734;2022-09-09T01:17:12;14.00;99.90
52305;DHT22;38248;52.722;6.734;2022-09-09T01:25:09;14.10;99.90
52305;DHT22;38248;52.722;6.734;2022-09-09T01:27:37;14.20;99.90
52305;DHT22;38248;52.722;6.734;2022-09-09T01:30:10;14.20;99.90
52305;DHT22;38248;52.722;6.734;2022-09-09T01:35:10;14.30;99.90
52305;DHT22;38248;52.722;6.734;2022-09-09T01:37:36;14.30;99.90
52305;DHT22;38248;52.722;6.734;2022-09-09T01:40:02;14.20;99.90
52305;DHT22;38248;52.722;6.734;2022-09-09T01:42:28;14.30;99.90
52305;DHT22;38248;52.722;6.734;2022-09-09T01:44:53;14.30;99.90
52305;DHT22;38248;52.722;6.734;2022-09-09T01:47:20;14.30;99.90
52305;DHT22;38248;52.722;6.734;2022-09-09T01:49:46;14.20;99.90
52305;DHT22;38248;52.722;6.734;2022-09-09T01:52:11;14.20;99.90
52305;DHT22;38248;52.722;6.734;2022-09-09T01:54:37;14.20;99.90
52305;DHT22;38248;52.722;6.734;2022-09-09T02:02:40;14.20;99.90
52305;DHT22;38248;52.722;6.734;2022-09-09T02:05:24;14.20;99.90
52305;DHT22;38248;52.722;6.734;2022-09-09T02:08:00;14.20;99.90
52305;DHT22;38248;52.722;6.734;2022-09-09T02:10:32;14.10;99.90
52305;DHT22;38248;52.722;6.734;2022-09-09T02:13:08;14.10;99.90
52305;DHT22;38248;52.722;6.734;2022-09-09T02:15:58;14.10;99.90
52305;DHT22;38248;52.722;6.734;2022-09-09T02:18:40;14.10;99.90
52305;DHT22;38248;52.722;6.734;2022-09-09T02:21:08;14.10;99.90
52305;DHT22;38248;52.722;6.734;2022-09-09T02:23:38;14.10;99.90
52305;DHT22;38248;52.722;6.734;2022-09-09T02:26:05;14.10;99.90
52305;DHT22;38248;52.722;6.734;2022-09-09T02:28:34;14.10;99.90
52305;DHT22;38248;52.722;6.734;2022-09-09T02:31:02;14.10;99.90
52305;DHT22;38248;52.722;6.734;2022-09-09T02:33:33;14.10;99.90
52305;DHT22;38248;52.722;6.734;2022-09-09T02:36:01;14.20;99.90
52305;DHT22;38248;52.722;6.734;2022-09-09T02:38:32;14.10;99.90
52305;DHT22;38248;52.722;6.734;2022-09-09T02:40:58;14.20;99.90
52305;DHT22;38248;52.722;6.734;2022-09-09T02:43:24;14.20;99.90
52305;DHT22;38248;52.722;6.734;2022-09-09T02:51:32;14.20;99.90
52305;DHT22;38248;52.722;6.734;2022-09-09T02:54:28;14.20;99.90
52305;DHT22;38248;52.722;6.734;2022-09-09T02:56:57;14.10;99.90
52305;DHT22;38248;52.722;6.734;2022-09-09T02:59:27;14.10;99.90
52305;DHT22;38248;52.722;6.734;2022-09-09T03:01:53;14.10;99.90
52305;DHT22;38248;52.722;6.734;2022-09-09T03:04:18;14.10;99.90
52305;DHT22;38248;52.722;6.734;2022-09-09T03:06:44;14.00;99.90
52305;DHT22;38248;52.722;6.734;2022-09-09T03:09:10;14.10;99.90
52305;DHT22;38248;52.722;6.734;2022-09-09T03:11:36;14.00;99.90
52305;DHT22;38248;52.722;6.734;2022-09-09T03:14:02;14.00;99.90
52305;DHT22;38248;52.722;6.734;2022-09-09T03:16:30;14.00;99.90
52305;DHT22;38248;52.722;6.734;2022-09-09T03:18:59;14.00;99.90
52305;DHT22;38248;52.722;6.734;2022-09-09T03:21:24;14.00;99.90
52305;DHT22;38248;52.722;6.734;2022-09-09T03:23:50;14.00;99.90
52305;DHT22;38248;52.722;6.734;2022-09-09T03:26:16;14.00;99.90
52305;DHT22;38248;52.722;6.734;2022-09-09T03:28:42;14.10;99.90
52305;DHT22;38248;52.722;6.734;2022-09-09T03:31:08;14.00;99.90
52305;DHT22;38248;52.722;6.734;2022-09-09T03:33:36;14.00;99.90
52305;DHT22;38248;52.722;6.734;2022-09-09T03:36:03;14.00;99.90
52305;DHT22;38248;52.722;6.734;2022-09-09T03:38:29;14.00;99.90
52305;DHT22;38248;52.722;6.734;2022-09-09T03:40:56;14.00;99.90
52305;DHT22;38248;52.722;6.734;2022-09-09T03:43:25;14.00;99.90
52305;DHT22;38248;52.722;6.734;2022-09-09T03:45:51;14.00;99.90
52305;DHT22;38248;52.722;6.734;2022-09-09T03:48:18;14.10;99.90
52305;DHT22;38248;52.722;6.734;2022-09-09T03:50:48;14.00;99.90
52305;DHT22;38248;52.722;6.734;2022-09-09T03:53:15;14.10;99.90
52305;DHT22;38248;52.722;6.734;2022-09-09T03:55:49;14.20;99.90
52305;DHT22;38248;52.722;6.734;2022-09-09T03:58:16;14.10;99.90
52305;DHT22;38248;52.722;6.734;2022-09-09T04:00:52;14.10;99.90
52305;DHT22;38248;52.722;6.734;2022-09-09T04:03:22;14.20;99.90
52305;DHT22;38248;52.722;6.734;2022-09-09T04:05:50;14.10;99.90
52305;DHT22;38248;52.722;6.734;2022-09-09T04:08:17;14.20;99.90
52305;DHT22;38248;52.722;6.734;2022-09-09T04:10:45;14.10;99.90
52305;DHT22;38248;52.722;6.734;2022-09-09T04:13:12;14.20;99.90
52305;DHT22;38248;52.722;6.734;2022-09-09T04:15:42;14.10;99.90
52305;DHT22;38248;52.722;6.734;2022-09-09T04:18:07;14.20;99.90
52305;DHT22;38248;52.722;6.734;2022-09-09T04:20:33;14.20;99.90
52305;DHT22;38248;52.722;6.734;2022-09-09T04:22:59;14.10;99.90
52305;DHT22;38248;52.722;6.734;2022-09-09T04:25:25;14.10;99.90
52305;DHT22;38248;52.722;6.734;2022-09-09T04:27:55;14.10;99.90
52305;DHT22;38248;52.722;6.734;2022-09-09T04:30:24;14.10;99.90
52305;DHT22;38248;52.722;6.734;2022-09-09T04:32:50;14.20;99.90
52305;DHT22;38248;52.722;6.734;2022-09-09T04:35:16;14.10;99.90
52305;DHT22;38248;52.722;6.734;2022-09-09T04:37:41;14.10;99.90
52305;DHT22;38248;52.722;6.734;2022-09-09T04:40:08;14.10;99.90
52305;DHT22;38248;52.722;6.734;2022-09-09T04:42:38;14.10;99.90
52305;DHT22;38248;52.722;6.734;2022-09-09T04:45:06;14.10;99.90
52305;DHT22;38248;52.722;6.734;2022-09-09T04:47:32;14.00;99.90
52305;DHT22;38248;52.722;6.734;2022-09-09T04:49:59;14.10;99.90
52305;DHT22;38248;52.722;6.734;2022-09-09T04:52:26;14.00;99.90
52305;DHT22;38248;52.722;6.734;2022-09-09T04:54:51;14.00;99.90
52305;DHT22;38248;52.722;6.734;2022-09-09T04:57:32;14.10;99.90
52305;DHT22;38248;52.722;6.734;2022-09-09T04:59:59;14.00;99.90
52305;DHT22;38248;52.722;6.734;2022-09-09T05:02:26;14.00;99.90
52305;DHT22;38248;52.722;6.734;2022-09-09T05:04:51;13.90;99.90
52305;DHT22;38248;52.722;6.734;2022-09-09T05:07:17;13.90;99.90
52305;DHT22;38248;52.722;6.734;2022-09-09T05:09:42;13.90;99.90
52305;DHT22;38248;52.722;6.734;2022-09-09T05:12:08;13.90;99.90
52305;DHT22;38248;52.722;6.734;2022-09-09T05:14:34;13.80;99.90
52305;DHT22;38248;52.722;6.734;2022-09-09T05:17:02;13.80;99.90
52305;DHT22;38248;52.722;6.734;2022-09-09T05:19:28;13.80;99.90
52305;DHT22;38248;52.722;6.734;2022-09-09T05:21:53;13.80;99.90
52305;DHT22;38248;52.722;6.734;2022-09-09T05:24:19;13.80;99.90
52305;DHT22;38248;52.722;6.734;2022-09-09T05:26:44;13.80;99.90
52305;DHT22;38248;52.722;6.734;2022-09-09T05:29:10;13.70;99.90
52305;DHT22;38248;52.722;6.734;2022-09-09T05:31:36;13.80;99.90
52305;DHT22;38248;52.722;6.734;2022-09-09T05:34:02;13.80;99.90
52305;DHT22;38248;52.722;6.734;2022-09-09T05:36:28;13.80;99.90
52305;DHT22;38248;52.722;6.734;2022-09-09T05:38:53;13.90;99.90
52305;DHT22;38248;52.722;6.734;2022-09-09T05:41:19;13.90;99.90
52305;DHT22;38248;52.722;6.734;2022-09-09T05:43:46;14.00;99.90
52305;DHT22;38248;52.722;6.734;2022-09-09T05:46:28;14.10;99.90
52305;DHT22;38248;52.722;6.734;2022-09-09T05:48:54;14.10;99.90
52305;DHT22;38248;52.722;6.734;2022-09-09T05:51:25;14.10;99.90
52305;DHT22;38248;52.722;6.734;2022-09-09T05:53:52;14.20;99.90
52305;DHT22;38248;52.722;6.734;2022-09-09T05:56:20;14.30;99.90
52305;DHT22;38248;52.722;6.734;2022-09-09T05:58:47;14.30;99.90
52305;DHT22;38248;52.722;6.734;2022-09-09T06:01:18;14.40;99.90
52305;DHT22;38248;52.722;6.734;2022-09-09T06:03:46;14.30;99.90
52305;DHT22;38248;52.722;6.734;2022-09-09T06:06:17;14.30;99.90
52305;DHT22;38248;52.722;6.734;2022-09-09T06:08:44;14.30;99.90
52305;DHT22;38248;52.722;6.734;2022-09-09T06:11:16;14.30;99.90
52305;DHT22;38248;52.722;6.734;2022-09-09T06:13:42;14.40;99.90
52305;DHT22;38248;52.722;6.734;2022-09-09T06:16:13;14.40;99.90
52305;DHT22;38248;52.722;6.734;2022-09-09T06:18:40;14.40;99.90
52305;DHT22;38248;52.722;6.734;2022-09-09T06:21:09;14.40;99.90
52305;DHT22;38248;52.722;6.734;2022-09-09T06:23:39;14.40;99.90
52305;DHT22;38248;52.722;6.734;2022-09-09T06:26:11;14.50;99.90
52305;DHT22;38248;52.722;6.734;2022-09-09T06:28:37;14.50;99.90
52305;DHT22;38248;52.722;6.734;2022-09-09T06:31:05;14.50;99.90
52305;DHT22;38248;52.722;6.734;2022-09-09T06:33:33;14.60;99.90
52305;DHT22;38248;52.722;6.734;2022-09-09T06:36:01;14.60;99.90
52305;DHT22;38248;52.722;6.734;2022-09-09T06:38:27;14.70;99.90
52305;DHT22;38248;52.722;6.734;2022-09-09T06:40:58;14.70;99.90
52305;DHT22;38248;52.722;6.734;2022-09-09T06:43:28;14.70;99.90
52305;DHT22;38248;52.722;6.734;2022-09-09T06:45:58;14.70;99.90
52305;DHT22;38248;52.722;6.734;2022-09-09T06:48:24;14.80;99.90
52305;DHT22;38248;52.722;6.734;2022-09-09T06:51:02;14.80;99.90
52305;DHT22;38248;52.722;6.734;2022-09-09T06:53:28;14.80;99.90
52305;DHT22;38248;52.722;6.734;2022-09-09T06:55:53;14.90;99.90
52305;DHT22;38248;52.722;6.734;2022-09-09T06:58:20;14.90;99.90
52305;DHT22;38248;52.722;6.734;2022-09-09T07:00:47;15.00;99.90
52305;DHT22;38248;52.722;6.734;2022-09-09T07:03:13;15.10;99.90
52305;DHT22;38248;52.722;6.734;2022-09-09T07:05:39;15.20;99.90
52305;DHT22;38248;52.722;6.734;2022-09-09T07:08:05;15.20;99.90
52305;DHT22;38248;52.722;6.734;2022-09-09T07:10:31;15.30;99.90
52305;DHT22;38248;52.722;6.734;2022-09-09T07:12:57;15.40;99.90
52305;DHT22;38248;52.722;6.734;2022-09-09T07:15:23;15.40;99.90
52305;DHT22;38248;52.722;6.734;2022-09-09T07:18:04;15.50;99.90
52305;DHT22;38248;52.722;6.734;2022-09-09T07:20:30;15.60;99.90
52305;DHT22;38248;52.722;6.734;2022-09-09T07:22:56;15.70;99.90
52305;DHT22;38248;52.722;6.734;2022-09-09T07:25:25;15.60;99.90
52305;DHT22;38248;52.722;6.734;2022-09-09T07:27:54;15.70;99.90
52305;DHT22;38248;52.722;6.734;2022-09-09T07:30:24;15.70;99.90
52305;DHT22;38248;52.722;6.734;2022-09-09T07:32:55;15.70;99.90
52305;DHT22;38248;52.722;6.734;2022-09-09T07:35:24;15.70;99.90
52305;DHT22;38248;52.722;6.734;2022-09-09T07:37:49;15.80;99.90
52305;DHT22;38248;52.722;6.734;2022-09-09T07:40:15;15.90;99.90
52305;DHT22;38248;52.722;6.734;2022-09-09T07:42:41;15.80;99.90
52305;DHT22;38248;52.722;6.734;2022-09-09T07:45:06;15.90;99.90
52305;DHT22;38248;52.722;6.734;2022-09-09T07:47:32;15.80;99.90
52305;DHT22;38248;52.722;6.734;2022-09-09T07:49:58;15.90;99.90
52305;DHT22;38248;52.722;6.734;2022-09-09T07:52:27;15.90;99.90
52305;DHT22;38248;52.722;6.734;2022-09-09T07:54:53;16.00;99.90
52305;DHT22;38248;52.722;6.734;2022-09-09T07:57:25;16.00;99.90
52305;DHT22;38248;52.722;6.734;2022-09-09T07:59:51;16.00;99.90
52305;DHT22;38248;52.722;6.734;2022-09-09T08:02:20;16.10;99.90
52305;DHT22;38248;52.722;6.734;2022-09-09T08:04:45;16.10;99.90
52305;DHT22;38248;52.722;6.734;2022-09-09T08:07:11;16.10;99.90
52305;DHT22;38248;52.722;6.734;2022-09-09T08:09:37;16.20;99.90
52305;DHT22;38248;52.722;6.734;2022-09-09T08:12:07;16.30;99.90
52305;DHT22;38248;52.722;6.734;2022-09-09T08:14:34;16.40;99.90
52305;DHT22;38248;52.722;6.734;2022-09-09T08:17:01;16.50;99.90
52305;DHT22;38248;52.722;6.734;2022-09-09T08:19:26;16.50;99.90
52305;DHT22;38248;52.722;6.734;2022-09-09T08:21:59;16.70;99.90
52305;DHT22;38248;52.722;6.734;2022-09-09T08:24:27;16.70;99.90
52305;DHT22;38248;52.722;6.734;2022-09-09T08:26:56;16.80;99.90
52305;DHT22;38248;52.722;6.734;2022-09-09T08:29:44;16.90;99.90
52305;DHT22;38248;52.722;6.734;2022-09-09T08:32:10;17.10;99.90
52305;DHT22;38248;52.722;6.734;2022-09-09T08:34:35;17.00;99.90
52305;DHT22;38248;52.722;6.734;2022-09-09T08:37:01;17.00;99.90
52305;DHT22;38248;52.722;6.734;2022-09-09T08:39:27;17.00;99.90
52305;DHT22;38248;52.722;6.734;2022-09-09T08:48:08;17.10;99.90
52305;DHT22;38248;52.722;6.734;2022-09-09T08:50:36;17.10;99.90
52305;DHT22;38248;52.722;6.734;2022-09-09T08:53:24;17.20;99.90
52305;DHT22;38248;52.722;6.734;2022-09-09T08:56:14;17.30;99.90
52305;DHT22;38248;52.722;6.734;2022-09-09T08:59:02;17.40;99.90
52305;DHT22;38248;52.722;6.734;2022-09-09T09:07:16;17.50;99.90
52305;DHT22;38248;52.722;6.734;2022-09-09T09:10:04;17.50;99.90
52305;DHT22;38248;52.722;6.734;2022-09-09T09:12:40;17.50;99.90
52305;DHT22;38248;52.722;6.734;2022-09-09T09:15:27;17.50;99.90
52305;DHT22;38248;52.722;6.734;2022-09-09T09:17:55;17.60;99.90
52305;DHT22;38248;52.722;6.734;2022-09-09T09:20:29;17.60;99.90
52305;DHT22;38248;52.722;6.734;2022-09-09T09:22:59;17.60;99.90
52305;DHT22;38248;52.722;6.734;2022-09-09T09:25:45;17.50;99.90
52305;DHT22;38248;52.722;6.734;2022-09-09T09:28:37;17.60;99.90
52305;DHT22;38248;52.722;6.734;2022-09-09T09:31:05;17.80;99.90
52305;DHT22;38248;52.722;6.734;2022-09-09T09:33:51;17.90;99.90
52305;DHT22;38248;52.722;6.734;2022-09-09T09:36:33;18.10;99.90
52305;DHT22;38248;52.722;6.734;2022-09-09T09:39:01;18.30;99.90
52305;DHT22;38248;52.722;6.734;2022-09-09T09:41:39;18.40;99.90
52305;DHT22;38248;52.722;6.734;2022-09-09T09:44:06;18.60;99.90
52305;DHT22;38248;52.722;6.734;2022-09-09T09:46:45;18.70;99.90
52305;DHT22;38248;52.722;6.734;2022-09-09T09:49:11;18.70;99.90
52305;DHT22;38248;52.722;6.734;2022-09-09T09:51:39;18.60;99.90
52305;DHT22;38248;52.722;6.734;2022-09-09T09:54:17;18.60;99.90
52305;DHT22;38248;52.722;6.734;2022-09-09T09:56:47;18.60;99.90
52305;DHT22;38248;52.722;6.734;2022-09-09T10:01:49;18.50;99.90
52305;DHT22;38248;52.722;6.734;2022-09-09T10:04:20;18.50;99.90
52305;DHT22;38248;52.722;6.734;2022-09-09T10:06:47;18.40;99.90
52305;DHT22;38248;52.722;6.734;2022-09-09T10:09:22;18.40;99.90
52305;DHT22;38248;52.722;6.734;2022-09-09T10:18:08;18.80;99.90
52305;DHT22;38248;52.722;6.734;2022-09-09T10:20:58;19.00;99.90
52305;DHT22;38248;52.722;6.734;2022-09-09T10:23:46;19.20;99.90
52305;DHT22;38248;52.722;6.734;2022-09-09T10:34:47;20.10;99.90
52305;DHT22;38248;52.722;6.734;2022-09-09T10:40:41;20.30;99.90
52305;DHT22;38248;52.722;6.734;2022-09-09T10:45:41;20.30;99.90
52305;DHT22;38248;52.722;6.734;2022-09-09T10:56:26;20.40;99.90
52305;DHT22;38248;52.722;6.734;2022-09-09T10:59:12;20.20;99.90
52305;DHT22;38248;52.722;6.734;2022-09-09T11:02:03;20.20;99.90
52305;DHT22;38248;52.722;6.734;2022-09-09T11:04:38;20.20;99.90
52305;DHT22;38248;52.722;6.734;2022-09-09T11:07:12;20.30;99.90
52305;DHT22;38248;52.722;6.734;2022-09-09T11:10:12;20.20;99.90
52305;DHT22;38248;52.722;6.734;2022-09-09T11:12:45;20.30;99.90
52305;DHT22;38248;52.722;6.734;2022-09-09T11:15:51;20.40;99.90
52305;DHT22;38248;52.722;6.734;2022-09-09T11:18:21;20.60;99.90
52305;DHT22;38248;52.722;6.734;2022-09-09T11:21:00;20.80;99.90
52305;DHT22;38248;52.722;6.734;2022-09-09T11:23:47;20.70;99.90
52305;DHT22;38248;52.722;6.734;2022-09-09T11:26:21;20.50;99.90
52305;DHT22;38248;52.722;6.734;2022-09-09T11:40:23;20.10;99.90
52305;DHT22;38248;52.722;6.734;2022-09-09T11:42:49;20.10;99.90
52305;DHT22;38248;52.722;6.734;2022-09-09T11:45:28;20.10;99.90
52305;DHT22;38248;52.722;6.734;2022-09-09T11:48:04;20.00;99.90
52305;DHT22;38248;52.722;6.734;2022-09-09T11:50:32;20.00;99.90
52305;DHT22;38248;52.722;6.734;2022-09-09T11:53:22;20.10;99.90
52305;DHT22;38248;52.722;6.734;2022-09-09T11:56:09;20.10;99.90
52305;DHT22;38248;52.722;6.734;2022-09-09T11:59:03;20.20;99.90
52305;DHT22;38248;52.722;6.734;2022-09-09T12:01:42;20.20;99.90
52305;DHT22;38248;52.722;6.734;2022-09-09T12:14:54;20.90;99.90
52305;DHT22;38248;52.722;6.734;2022-09-09T12:17:43;20.90;99.90
52305;DHT22;38248;52.722;6.734;2022-09-09T12:20:17;20.90;99.90
52305;DHT22;38248;52.722;6.734;2022-09-09T12:32:11;20.60;99.40
52305;DHT22;38248;52.722;6.734;2022-09-09T12:34:46;20.50;99.60
52305;DHT22;38248;52.722;6.734;2022-09-09T12:39:59;20.20;99.90
52305;DHT22;38248;52.722;6.734;2022-09-09T12:42:28;20.10;99.60
52305;DHT22;38248;52.722;6.734;2022-09-09T12:45:03;20.10;99.90
52305;DHT22;38248;52.722;6.734;2022-09-09T12:47:40;19.90;99.90
52305;DHT22;38248;52.722;6.734;2022-09-09T12:50:29;19.80;99.90
52305;DHT22;38248;52.722;6.734;2022-09-09T12:55:53;19.50;99.90
52305;DHT22;38248;52.722;6.734;2022-09-09T12:58:20;19.50;99.90
52305;DHT22;38248;52.722;6.734;2022-09-09T13:00:54;19.40;99.90
52305;DHT22;38248;52.722;6.734;2022-09-09T13:03:46;19.30;99.90
52305;DHT22;38248;52.722;6.734;2022-09-09T13:06:20;19.30;99.90
52305;DHT22;38248;52.722;6.734;2022-09-09T13:08:48;19.30;99.90
52305;DHT22;38248;52.722;6.734;2022-09-09T13:11:23;19.60;99.90
52305;DHT22;38248;52.722;6.734;2022-09-09T13:13:59;19.90;99.90
52305;DHT22;38248;52.722;6.734;2022-09-09T13:16:33;20.30;99.90
52305;DHT22;38248;52.722;6.734;2022-09-09T13:19:15;20.40;99.90
52305;DHT22;38248;52.722;6.734;2022-09-09T13:21:44;20.60;99.90
52305;DHT22;38248;52.722;6.734;2022-09-09T13:24:33;20.70;99.90
52305;DHT22;38248;52.722;6.734;2022-09-09T13:27:25;20.60;99.90
52305;DHT22;38248;52.722;6.734;2022-09-09T13:29:53;20.50;99.50
52305;DHT22;38248;52.722;6.734;2022-09-09T13:32:20;20.40;99.70
52305;DHT22;38248;52.722;6.734;2022-09-09T13:34:57;20.40;98.90
52305;DHT22;38248;52.722;6.734;2022-09-09T13:37:36;20.30;98.80
52305;DHT22;38248;52.722;6.734;2022-09-09T13:40:03;20.10;99.00
52305;DHT22;38248;52.722;6.734;2022-09-09T13:42:33;20.00;99.40
52305;DHT22;38248;52.722;6.734;2022-09-09T13:45:02;20.00;99.90
52305;DHT22;38248;52.722;6.734;2022-09-09T13:47:35;19.90;99.90
52305;DHT22;38248;52.722;6.734;2022-09-09T13:50:23;19.90;99.90
52305;DHT22;38248;52.722;6.734;2022-09-09T13:52:56;19.90;99.90
52305;DHT22;38248;52.722;6.734;2022-09-09T13:55:42;19.90;99.90
52305;DHT22;38248;52.722;6.734;2022-09-09T13:58:15;19.80;99.90
52305;DHT22;38248;52.722;6.734;2022-09-09T14:00:42;19.60;99.90
52305;DHT22;38248;52.722;6.734;2022-09-09T14:03:16;19.10;99.90
52305;DHT22;38248;52.722;6.734;2022-09-09T14:05:47;18.70;99.90
52305;DHT22;38248;52.722;6.734;2022-09-09T14:08:25;18.40;99.90
52305;DHT22;38248;52.722;6.734;2022-09-09T14:10:51;18.10;99.90
52305;DHT22;38248;52.722;6.734;2022-09-09T14:13:17;18.00;99.90
52305;DHT22;38248;52.722;6.734;2022-09-09T14:15:43;17.90;99.90
52305;DHT22;38248;52.722;6.734;2022-09-09T14:18:12;18.00;99.90
52305;DHT22;38248;52.722;6.734;2022-09-09T14:20:40;18.10;99.90
52305;DHT22;38248;52.722;6.734;2022-09-09T14:23:07;18.30;99.90
52305;DHT22;38248;52.722;6.734;2022-09-09T14:25:35;18.50;99.90
52305;DHT22;38248;52.722;6.734;2022-09-09T14:28:03;18.60;99.90
52305;DHT22;38248;52.722;6.734;2022-09-09T14:30:29;18.70;99.90
52305;DHT22;38248;52.722;6.734;2022-09-09T14:32:54;18.70;99.90
52305;DHT22;38248;52.722;6.734;2022-09-09T14:35:20;18.90;99.90
52305;DHT22;38248;52.722;6.734;2022-09-09T14:37:46;19.20;99.90
52305;DHT22;38248;52.722;6.734;2022-09-09T14:40:12;19.90;99.90
52305;DHT22;38248;52.722;6.734;2022-09-09T14:42:45;20.40;99.90
52305;DHT22;38248;52.722;6.734;2022-09-09T14:45:11;20.80;99.90
52305;DHT22;38248;52.722;6.734;2022-09-09T14:47:37;21.10;99.90
52305;DHT22;38248;52.722;6.734;2022-09-09T14:50:04;21.00;99.90
52305;DHT22;38248;52.722;6.734;2022-09-09T14:52:30;20.60;99.90
52305;DHT22;38248;52.722;6.734;2022-09-09T14:54:56;20.30;99.90
52305;DHT22;38248;52.722;6.734;2022-09-09T14:57:22;20.20;99.90
52305;DHT22;38248;52.722;6.734;2022-09-09T14:59:48;20.10;99.90
52305;DHT22;38248;52.722;6.734;2022-09-09T15:02:16;19.90;99.90
52305;DHT22;38248;52.722;6.734;2022-09-09T15:04:41;19.70;99.90
52305;DHT22;38248;52.722;6.734;2022-09-09T15:07:07;19.50;99.90
52305;DHT22;38248;52.722;6.734;2022-09-09T15:09:33;19.40;99.90
52305;DHT22;38248;52.722;6.734;2022-09-09T15:11:58;19.20;99.90
52305;DHT22;38248;52.722;6.734;2022-09-09T15:14:25;19.10;99.90
52305;DHT22;38248;52.722;6.734;2022-09-09T15:16:56;19.10;99.90
52305;DHT22;38248;52.722;6.734;2022-09-09T15:19:21;19.10;99.90
52305;DHT22;38248;52.722;6.734;2022-09-09T15:21:47;19.10;99.90
52305;DHT22;38248;52.722;6.734;2022-09-09T15:24:13;19.10;99.90
52305;DHT22;38248;52.722;6.734;2022-09-09T15:26:38;18.90;99.90
52305;DHT22;38248;52.722;6.734;2022-09-09T15:29:05;18.80;99.90
52305;DHT22;38248;52.722;6.734;2022-09-09T15:31:31;18.60;99.90
52305;DHT22;38248;52.722;6.734;2022-09-09T15:33:59;18.50;99.90
52305;DHT22;38248;52.722;6.734;2022-09-09T15:36:30;18.40;99.90
52305;DHT22;38248;52.722;6.734;2022-09-09T15:38:58;18.30;99.90
52305;DHT22;38248;52.722;6.734;2022-09-09T15:41:24;18.20;99.90
52305;DHT22;38248;52.722;6.734;2022-09-09T15:43:55;18.20;99.90
52305;DHT22;38248;52.722;6.734;2022-09-09T15:48:52;18.50;99.90
52305;DHT22;38248;52.722;6.734;2022-09-09T15:51:18;18.50;99.90
52305;DHT22;38248;52.722;6.734;2022-09-09T15:53:46;18.60;99.90
52305;DHT22;38248;52.722;6.734;2022-09-09T15:56:13;18.70;99.90
52305;DHT22;38248;52.722;6.734;2022-09-09T15:58:40;18.70;99.90
52305;DHT22;38248;52.722;6.734;2022-09-09T16:01:09;18.90;99.90
52305;DHT22;38248;52.722;6.734;2022-09-09T16:03:40;18.90;99.90
52305;DHT22;38248;52.722;6.734;2022-09-09T16:06:17;19.10;99.90
52305;DHT22;38248;52.722;6.734;2022-09-09T16:08:48;19.00;99.90
52305;DHT22;38248;52.722;6.734;2022-09-09T16:11:21;19.10;99.90
52305;DHT22;38248;52.722;6.734;2022-09-09T16:13:48;19.10;99.90
52305;DHT22;38248;52.722;6.734;2022-09-09T16:16:19;19.00;99.90
52305;DHT22;38248;52.722;6.734;2022-09-09T16:18:49;19.00;99.90
52305;DHT22;38248;52.722;6.734;2022-09-09T16:21:20;18.80;99.90
52305;DHT22;38248;52.722;6.734;2022-09-09T16:23:47;18.70;99.90
52305;DHT22;38248;52.722;6.734;2022-09-09T16:26:18;18.60;99.90
52305;DHT22;38248;52.722;6.734;2022-09-09T16:28:51;18.50;99.90
52305;DHT22;38248;52.722;6.734;2022-09-09T16:31:24;18.50;99.90
52305;DHT22;38248;52.722;6.734;2022-09-09T16:33:50;18.50;99.90
52305;DHT22;38248;52.722;6.734;2022-09-09T16:36:18;18.40;99.90
52305;DHT22;38248;52.722;6.734;2022-09-09T16:38:44;18.40;99.90
52305;DHT22;38248;52.722;6.734;2022-09-09T16:41:12;18.40;99.90
52305;DHT22;38248;52.722;6.734;2022-09-09T16:43:39;18.40;99.90
52305;DHT22;38248;52.722;6.734;2022-09-09T16:46:16;18.40;99.90
52305;DHT22;38248;52.722;6.734;2022-09-09T16:48:46;18.30;99.90
52305;DHT22;38248;52.722;6.734;2022-09-09T16:51:18;18.30;99.90
52305;DHT22;38248;52.722;6.734;2022-09-09T16:56:21;18.20;99.90
52305;DHT22;38248;52.722;6.734;2022-09-09T16:58:54;18.10;99.90
52305;DHT22;38248;52.722;6.734;2022-09-09T17:01:37;18.10;99.90
52305;DHT22;38248;52.722;6.734;2022-09-09T17:04:06;18.00;99.90
52305;DHT22;38248;52.722;6.734;2022-09-09T17:06:36;17.90;99.90
52305;DHT22;38248;52.722;6.734;2022-09-09T17:09:14;17.90;99.90
52305;DHT22;38248;52.722;6.734;2022-09-09T17:11:44;17.80;99.90
52305;DHT22;38248;52.722;6.734;2022-09-09T17:14:14;17.80;99.90
52305;DHT22;38248;52.722;6.734;2022-09-09T17:16:41;17.80;99.90
52305;DHT22;38248;52.722;6.734;2022-09-09T17:19:08;17.70;99.90
52305;DHT22;38248;52.722;6.734;2022-09-09T17:21:39;17.70;99.90
52305;DHT22;38248;52.722;6.734;2022-09-09T17:24:08;17.70;99.90
52305;DHT22;38248;52.722;6.734;2022-09-09T17:26:35;17.70;99.90
52305;DHT22;38248;52.722;6.734;2022-09-09T17:29:05;17.70;99.90
52305;DHT22;38248;52.722;6.734;2022-09-09T17:31:34;17.60;99.90
52305;DHT22;38248;52.722;6.734;2022-09-09T17:34:00;17.60;99.90
52305;DHT22;38248;52.722;6.734;2022-09-09T17:36:31;17.60;99.90
52305;DHT22;38248;52.722;6.734;2022-09-09T17:38:58;17.60;99.90
52305;DHT22;38248;52.722;6.734;2022-09-09T17:41:35;17.60;99.90
52305;DHT22;38248;52.722;6.734;2022-09-09T17:44:01;17.50;99.90
52305;DHT22;38248;52.722;6.734;2022-09-09T17:46:40;17.60;99.90
52305;DHT22;38248;52.722;6.734;2022-09-09T17:49:13;17.60;99.90
52305;DHT22;38248;52.722;6.734;2022-09-09T17:51:40;17.60;99.90
52305;DHT22;38248;52.722;6.734;2022-09-09T17:54:20;17.60;99.90
52305;DHT22;38248;52.722;6.734;2022-09-09T17:56:46;17.50;99.90
52305;DHT22;38248;52.722;6.734;2022-09-09T17:59:15;17.60;99.90